createdAt,value
2017-07-22T00:01:30.185Z,77.40
2017-07-22T00:03:56.538Z,77.70
2017-07-22T00:06:22.988Z,77.60
2017-07-22T00:08:49.365Z,77.70
2017-07-22T00:11:16.463Z,77.80
2017-07-22T00:13:42.810Z,77.80
2017-07-22T00:16:09.189Z,78.00
2017-07-22T00:18:35.504Z,78.00
2017-07-22T00:21:02.622Z,77.60
2017-07-22T00:23:33.109Z,77.60
2017-07-22T00:26:00.280Z,77.90
2017-07-22T00:28:26.684Z,77.80
2017-07-22T00:30:53.110Z,77.40
2017-07-22T00:33:19.577Z,77.70
2017-07-22T00:35:46.191Z,77.60
2017-07-22T00:38:12.728Z,77.80
2017-07-22T00:40:39.445Z,77.90
2017-07-22T00:43:05.807Z,77.90
2017-07-22T00:45:32.173Z,77.60
2017-07-22T00:47:58.486Z,77.40
2017-07-22T00:50:25.105Z,77.60
2017-07-22T00:52:51.971Z,77.10
2017-07-22T00:55:18.694Z,77.70
2017-07-22T00:57:45.131Z,77.20
2017-07-22T01:00:11.599Z,77.30
2017-07-22T01:02:37.959Z,77.50
2017-07-22T01:05:05.056Z,77.10
2017-07-22T01:07:31.369Z,77.10
2017-07-22T01:09:57.743Z,77.10
2017-07-22T01:12:24.056Z,77.20
2017-07-22T01:14:50.372Z,77.40
2017-07-22T01:17:16.757Z,77.20
2017-07-22T01:19:44.420Z,76.90
2017-07-22T01:22:10.828Z,76.90
2017-07-22T01:24:37.577Z,76.90
2017-07-22T01:27:03.948Z,76.90
2017-07-22T01:29:30.338Z,76.90
2017-07-22T01:31:56.715Z,76.80
2017-07-22T01:34:23.055Z,76.80
2017-07-22T01:36:49.392Z,76.70
2017-07-22T01:39:15.822Z,76.40
2017-07-22T01:41:42.263Z,77.30
2017-07-22T01:44:08.684Z,76.60
2017-07-22T01:46:35.086Z,76.60
2017-07-22T01:49:02.743Z,76.90
2017-07-22T01:51:29.171Z,76.90
2017-07-22T01:53:56.266Z,76.50
2017-07-22T01:56:22.637Z,76.40
2017-07-22T01:58:48.988Z,76.40
2017-07-22T02:01:16.570Z,76.20
2017-07-22T02:03:43.110Z,76.20
2017-07-22T02:06:09.933Z,76.60
2017-07-22T02:08:37.240Z,76.50
2017-07-22T02:11:03.988Z,76.40
2017-07-22T02:13:30.826Z,76.80
2017-07-22T02:15:57.360Z,76.90
2017-07-22T02:18:24.949Z,76.60
2017-07-22T02:20:51.292Z,76.60
2017-07-22T02:23:18.412Z,77.10
2017-07-22T02:25:44.751Z,77.00
2017-07-22T02:28:11.286Z,76.90
2017-07-22T02:30:37.719Z,76.80
2017-07-22T02:33:04.050Z,77.60
2017-07-22T02:35:30.441Z,77.60
2017-07-22T02:37:57.182Z,77.40
2017-07-22T02:40:23.609Z,77.40
2017-07-22T02:42:49.945Z,77.60
2017-07-22T02:45:17.175Z,77.60
2017-07-22T02:47:43.499Z,77.70
2017-07-22T02:50:11.395Z,77.50
2017-07-22T02:52:38.053Z,77.50
2017-07-22T02:55:04.381Z,77.50
2017-07-22T02:57:30.710Z,77.70
2017-07-22T02:59:57.108Z,77.30
2017-07-22T03:02:23.452Z,77.40
2017-07-22T03:04:50.236Z,77.10
2017-07-22T03:07:17.719Z,77.50
2017-07-22T03:09:44.184Z,77.50
2017-07-22T03:14:43.499Z,76.80
2017-07-22T03:17:10.234Z,77.60
2017-07-22T03:19:37.119Z,77.90
2017-07-22T03:22:03.477Z,77.70
2017-07-22T03:24:30.975Z,77.90
2017-07-22T03:26:57.843Z,77.90
2017-07-22T03:29:24.510Z,78.00
2017-07-22T03:31:50.876Z,78.00
2017-07-22T03:34:17.253Z,77.60
2017-07-22T03:36:43.568Z,77.60
2017-07-22T03:39:09.906Z,77.50
2017-07-22T03:41:36.257Z,77.60
2017-07-22T03:44:02.749Z,77.70
2017-07-22T03:46:29.235Z,78.40
2017-07-22T03:48:55.651Z,77.80
2017-07-22T03:51:22.391Z,77.90
2017-07-22T03:53:48.723Z,77.80
2017-07-22T03:56:15.116Z,77.70
2017-07-22T03:58:41.443Z,78.00
2017-07-22T04:01:07.882Z,78.00
2017-07-22T04:03:34.196Z,78.10
2017-07-22T04:06:00.554Z,77.80
2017-07-22T04:08:27.288Z,78.00
2017-07-22T04:10:53.796Z,78.00
2017-07-22T04:13:20.183Z,77.90
2017-07-22T04:15:50.380Z,77.80
2017-07-22T04:18:16.722Z,77.80
2017-07-22T04:20:43.045Z,77.80
2017-07-22T04:23:09.415Z,78.00
2017-07-22T04:25:35.934Z,78.10
2017-07-22T04:28:02.759Z,78.30
2017-07-22T04:30:29.177Z,78.20
2017-07-22T04:32:55.506Z,78.40
2017-07-22T04:35:21.889Z,77.90
2017-07-22T04:37:48.213Z,78.00
2017-07-22T04:40:14.665Z,77.80
2017-07-22T04:42:41.865Z,78.00
2017-07-22T04:45:08.427Z,78.00
2017-07-22T04:47:35.051Z,77.90
2017-07-22T04:50:01.380Z,78.00
2017-07-22T04:52:27.880Z,77.90
2017-07-22T04:54:54.345Z,77.70
2017-07-22T04:57:20.668Z,77.80
2017-07-22T04:59:47.071Z,77.90
2017-07-22T05:02:13.497Z,77.90
2017-07-22T05:04:39.918Z,77.70
2017-07-22T05:07:06.986Z,77.60
2017-07-22T05:09:33.344Z,77.60
2017-07-22T05:12:00.911Z,77.60
2017-07-22T05:14:27.450Z,77.50
2017-07-22T05:16:53.870Z,77.80
2017-07-22T05:19:20.284Z,77.80
2017-07-22T05:21:46.705Z,77.80
2017-07-22T05:24:13.098Z,77.60
2017-07-22T05:26:40.147Z,78.00
2017-07-22T05:29:06.531Z,78.60
2017-07-22T05:31:32.945Z,78.60
2017-07-22T05:34:00.081Z,78.70
2017-07-22T05:36:27.172Z,78.80
2017-07-22T05:38:53.554Z,78.70
2017-07-22T05:41:19.906Z,78.80
2017-07-22T05:43:47.024Z,78.80
2017-07-22T05:46:13.343Z,78.80
2017-07-22T05:48:39.759Z,78.70
2017-07-22T05:51:06.581Z,78.70
2017-07-22T05:53:33.455Z,78.80
2017-07-22T05:55:59.982Z,78.80
2017-07-22T05:58:26.567Z,78.80
2017-07-22T06:00:53.833Z,78.30
2017-07-22T06:03:20.253Z,78.30
2017-07-22T06:05:47.437Z,78.50
2017-07-22T06:08:13.790Z,78.50
2017-07-22T06:10:41.858Z,79.10
2017-07-22T06:13:08.351Z,79.20
2017-07-22T06:15:34.690Z,79.10
2017-07-22T06:18:01.077Z,79.30
2017-07-22T06:20:27.412Z,78.40
2017-07-22T06:22:54.194Z,79.10
2017-07-22T06:25:20.965Z,78.80
2017-07-22T06:27:47.479Z,78.30
2017-07-22T06:30:13.965Z,79.20
2017-07-22T06:32:40.426Z,78.80
2017-07-22T06:35:07.598Z,79.10
2017-07-22T06:37:34.209Z,79.10
2017-07-22T06:40:01.487Z,79.60
2017-07-22T06:42:28.923Z,79.60
2017-07-22T06:44:56.112Z,79.10
2017-07-22T06:47:22.645Z,79.10
2017-07-22T06:49:49.136Z,78.80
2017-07-22T06:52:16.386Z,77.80
2017-07-22T06:54:42.818Z,77.60
2017-07-22T06:57:10.030Z,76.90
2017-07-22T06:59:36.671Z,77.70
2017-07-22T07:04:26.403Z,78.20
2017-07-22T07:06:54.178Z,77.60
2017-07-22T07:09:21.787Z,77.50
2017-07-22T07:11:49.184Z,75.90
2017-07-22T07:14:15.744Z,75.90
2017-07-22T07:16:42.250Z,76.00
2017-07-22T07:19:08.814Z,76.30
2017-07-22T07:21:35.756Z,76.60
2017-07-22T07:24:03.413Z,75.90
2017-07-22T07:26:30.133Z,75.70
2017-07-22T07:28:57.653Z,76.40
2017-07-22T07:31:24.240Z,76.40
2017-07-22T07:33:51.089Z,77.50
2017-07-22T07:36:17.705Z,77.40
2017-07-22T07:38:45.320Z,75.20
2017-07-22T07:41:12.249Z,75.20
2017-07-22T07:43:39.185Z,75.20
2017-07-22T07:46:06.048Z,74.90
2017-07-22T07:48:33.525Z,76.70
2017-07-22T07:51:00.926Z,76.00
2017-07-22T07:53:28.308Z,75.40
2017-07-22T07:55:56.571Z,75.80
2017-07-22T07:58:23.995Z,75.30
2017-07-22T08:00:51.354Z,75.40
2017-07-22T08:03:18.921Z,75.70
2017-07-22T08:05:45.825Z,75.50
2017-07-22T08:08:12.703Z,74.60
2017-07-22T08:10:39.833Z,74.60
2017-07-22T08:13:06.700Z,74.60
2017-07-22T08:15:34.293Z,74.00
2017-07-22T08:18:00.745Z,73.80
2017-07-22T08:20:28.227Z,72.20
2017-07-22T08:22:55.165Z,72.70
2017-07-22T08:25:21.825Z,72.90
2017-07-22T08:27:50.684Z,73.00
2017-07-22T08:30:17.500Z,73.60
2017-07-22T08:32:43.965Z,73.40
2017-07-22T08:35:10.809Z,73.30
2017-07-22T08:37:37.923Z,71.60
2017-07-22T08:40:04.501Z,69.70
2017-07-22T08:42:31.597Z,70.90
2017-07-22T08:44:59.170Z,72.00
2017-07-22T08:47:25.893Z,72.00
2017-07-22T08:49:55.218Z,70.80
2017-07-22T08:52:21.936Z,73.10
2017-07-22T08:54:49.080Z,71.10
2017-07-22T08:57:15.700Z,70.50
2017-07-22T08:59:43.449Z,71.50
2017-07-22T09:02:09.999Z,71.00
2017-07-22T09:04:38.326Z,71.20
2017-07-22T09:07:07.410Z,70.20
2017-07-22T09:09:33.858Z,70.20
2017-07-22T09:12:02.525Z,66.60
2017-07-22T09:14:31.076Z,66.50
2017-07-22T09:16:58.366Z,68.90
2017-07-22T09:19:26.504Z,67.80
2017-07-22T09:21:53.500Z,68.60
2017-07-22T09:24:20.267Z,68.60
2017-07-22T09:26:46.723Z,69.60
2017-07-22T09:29:14.651Z,69.70
2017-07-22T09:31:41.863Z,68.70
2017-07-22T09:34:10.541Z,68.40
2017-07-22T09:36:37.707Z,67.20
2017-07-22T09:39:04.489Z,67.10
2017-07-22T09:41:32.252Z,66.20
2017-07-22T09:43:58.699Z,66.10
2017-07-22T09:46:25.271Z,66.90
2017-07-22T09:48:52.793Z,66.40
2017-07-22T09:51:19.285Z,66.20
2017-07-22T09:53:45.736Z,63.00
2017-07-22T09:56:12.159Z,63.80
2017-07-22T09:58:38.759Z,63.30
2017-07-22T10:01:05.909Z,65.90
2017-07-22T10:03:33.940Z,65.20
2017-07-22T10:06:00.362Z,65.30
2017-07-22T10:08:26.744Z,66.00
2017-07-22T10:10:53.930Z,65.80
2017-07-22T10:13:20.356Z,65.70
2017-07-22T10:15:47.254Z,65.00
2017-07-22T10:18:13.635Z,63.60
2017-07-22T10:20:40.131Z,62.90
2017-07-22T10:23:06.550Z,60.70
2017-07-22T10:25:32.966Z,59.80
2017-07-22T10:27:59.341Z,59.50
2017-07-22T10:30:26.638Z,62.50
2017-07-22T10:32:53.104Z,62.20
2017-07-22T10:35:19.529Z,66.20
2017-07-22T10:37:46.094Z,62.10
2017-07-22T10:40:12.649Z,60.50
2017-07-22T10:42:39.876Z,58.80
2017-07-22T10:45:07.299Z,58.70
2017-07-22T10:47:33.756Z,58.90
2017-07-22T10:50:00.518Z,58.60
2017-07-22T10:52:27.684Z,61.40
2017-07-22T10:54:54.077Z,60.60
2017-07-22T10:57:20.711Z,60.00
2017-07-22T10:59:49.022Z,60.30
2017-07-22T11:02:18.451Z,59.00
2017-07-22T11:04:44.902Z,58.60
2017-07-22T11:07:11.333Z,58.20
2017-07-22T11:09:37.808Z,59.30
2017-07-22T11:12:04.619Z,59.20
2017-07-22T11:14:31.973Z,60.70
2017-07-22T11:17:00.659Z,58.90
2017-07-22T11:19:28.758Z,58.70
2017-07-22T11:21:56.327Z,58.70
2017-07-22T11:24:23.337Z,58.60
2017-07-22T11:26:49.795Z,57.70
2017-07-22T11:29:16.221Z,57.20
2017-07-22T11:31:42.635Z,56.60
2017-07-22T11:34:09.572Z,56.80
2017-07-22T11:36:35.983Z,57.70
2017-07-22T11:39:02.688Z,55.50
2017-07-22T11:41:29.137Z,58.90
2017-07-22T11:43:56.779Z,58.50
2017-07-22T11:46:23.161Z,58.50
2017-07-22T11:48:50.740Z,55.70
2017-07-22T11:51:17.174Z,56.30
2017-07-22T11:53:43.979Z,55.40
2017-07-22T11:56:10.392Z,55.70
2017-07-22T11:58:38.230Z,55.50
2017-07-22T12:01:07.613Z,54.70
2017-07-22T12:03:34.070Z,53.70
2017-07-22T12:06:00.510Z,56.10
2017-07-22T12:08:27.012Z,55.20
2017-07-22T12:10:53.662Z,55.80
2017-07-22T12:13:20.723Z,57.40
2017-07-22T12:15:47.512Z,56.60
2017-07-22T12:18:14.150Z,57.10
2017-07-22T12:20:40.557Z,56.50
2017-07-22T12:23:07.169Z,54.50
2017-07-22T12:25:34.421Z,53.70
2017-07-22T12:28:03.424Z,55.90
2017-07-22T12:30:29.921Z,58.00
2017-07-22T12:32:56.453Z,59.10
2017-07-22T12:35:22.859Z,59.00
2017-07-22T12:37:49.249Z,59.30
2017-07-22T12:40:15.918Z,60.30
2017-07-22T12:42:43.084Z,60.30
2017-07-22T12:45:10.293Z,60.10
2017-07-22T12:47:36.680Z,60.00
2017-07-22T12:50:03.096Z,59.60
2017-07-22T12:52:30.253Z,60.70
2017-07-22T12:54:57.444Z,61.70
2017-07-22T12:57:24.439Z,62.50
2017-07-22T12:59:50.896Z,62.00
2017-07-22T13:02:17.272Z,62.20
2017-07-22T13:04:44.103Z,62.40
2017-07-22T13:07:10.540Z,62.50
2017-07-22T13:09:38.195Z,62.80
2017-07-22T13:12:06.260Z,63.00
2017-07-22T13:14:33.113Z,63.10
2017-07-22T13:16:59.755Z,63.50
2017-07-22T13:19:26.157Z,62.80
2017-07-22T13:21:52.578Z,62.50
2017-07-22T13:24:20.812Z,62.20
2017-07-22T13:26:47.245Z,62.70
2017-07-22T13:29:13.645Z,63.00
2017-07-22T13:31:40.391Z,62.90
2017-07-22T13:34:06.976Z,62.60
2017-07-22T13:36:34.817Z,62.00
2017-07-22T13:39:02.772Z,62.50
2017-07-22T13:41:29.646Z,62.40
2017-07-22T13:43:56.330Z,61.30
2017-07-22T13:46:24.275Z,61.60
2017-07-22T13:48:51.618Z,62.60
2017-07-22T13:51:18.427Z,62.60
2017-07-22T13:53:46.126Z,63.00
2017-07-22T13:56:13.478Z,63.00
2017-07-22T13:58:40.645Z,63.10
2017-07-22T14:01:07.045Z,63.10
2017-07-22T14:03:33.466Z,63.00
2017-07-22T14:05:59.853Z,62.90
2017-07-22T14:08:27.673Z,63.90
2017-07-22T14:10:54.095Z,63.30
2017-07-22T14:13:20.489Z,62.60
2017-07-22T14:15:46.954Z,62.90
2017-07-22T14:18:13.410Z,63.30
2017-07-22T14:20:39.875Z,63.30
2017-07-22T14:23:10.462Z,63.00
2017-07-22T14:25:36.822Z,62.80
2017-07-22T14:28:03.968Z,62.80
2017-07-22T14:30:30.432Z,62.80
2017-07-22T14:32:56.850Z,62.20
2017-07-22T14:35:23.955Z,62.90
2017-07-22T14:37:50.314Z,62.80
2017-07-22T14:40:16.749Z,63.50
2017-07-22T14:42:43.833Z,64.70
2017-07-22T14:45:10.188Z,64.20
2017-07-22T14:47:36.583Z,63.30
2017-07-22T14:50:03.010Z,64.20
2017-07-22T14:52:30.613Z,64.00
2017-07-22T14:54:57.351Z,63.90
2017-07-22T14:57:23.860Z,64.20
2017-07-22T14:59:50.411Z,64.80
2017-07-22T15:02:17.232Z,64.20
2017-07-22T15:04:44.078Z,63.80
2017-07-22T15:07:11.139Z,63.70
2017-07-22T15:09:37.566Z,63.20
2017-07-22T15:12:04.218Z,62.50
2017-07-22T15:14:30.599Z,62.80
2017-07-22T15:16:57.245Z,61.90
2017-07-22T15:19:25.446Z,61.90
2017-07-22T15:21:54.613Z,61.50
2017-07-22T15:24:21.117Z,62.10
2017-07-22T15:26:47.460Z,61.80
2017-07-22T15:29:13.849Z,62.30
2017-07-22T15:31:40.609Z,61.90
2017-07-22T15:34:07.063Z,61.50
2017-07-22T15:36:33.797Z,61.10
2017-07-22T15:39:00.259Z,60.90
2017-07-22T15:41:27.449Z,60.70
2017-07-22T15:43:53.864Z,60.80
2017-07-22T15:46:22.408Z,61.00
2017-07-22T15:48:49.549Z,61.60
2017-07-22T15:51:15.937Z,61.40
2017-07-22T15:53:42.292Z,61.40
2017-07-22T15:56:08.690Z,61.10
2017-07-22T15:58:35.204Z,60.30
2017-07-22T16:01:01.568Z,60.10
2017-07-22T16:03:27.948Z,59.60
2017-07-22T16:05:54.274Z,60.10
2017-07-22T16:08:20.625Z,59.70
2017-07-22T16:10:47.022Z,59.50
2017-07-22T16:13:13.409Z,59.30
2017-07-22T16:15:40.545Z,59.60
2017-07-22T16:18:07.905Z,59.60
2017-07-22T16:20:34.977Z,59.60
2017-07-22T16:23:01.301Z,59.60
2017-07-22T16:25:27.776Z,59.50
2017-07-22T16:27:54.104Z,59.30
2017-07-22T16:30:21.091Z,59.40
2017-07-22T16:32:47.507Z,59.10
2017-07-22T16:35:13.869Z,59.30
2017-07-22T16:37:40.984Z,59.30
2017-07-22T16:40:07.577Z,59.30
2017-07-22T16:42:34.001Z,59.20
2017-07-22T16:45:00.350Z,59.10
2017-07-22T16:47:26.688Z,58.50
2017-07-22T16:49:53.439Z,58.40
2017-07-22T16:52:19.784Z,58.90
2017-07-22T16:54:46.147Z,58.80
2017-07-22T16:57:13.349Z,58.70
2017-07-22T16:59:39.770Z,58.70
2017-07-22T17:02:06.238Z,58.60
2017-07-22T17:04:33.863Z,58.40
2017-07-22T17:07:00.388Z,58.40
2017-07-22T17:09:26.741Z,58.00
2017-07-22T17:11:53.104Z,58.20
2017-07-22T17:14:19.475Z,58.70
2017-07-22T17:16:46.037Z,59.30
2017-07-22T17:19:12.395Z,59.30
2017-07-22T17:21:38.772Z,59.20
2017-07-22T17:24:05.483Z,59.20
2017-07-22T17:26:32.640Z,58.90
2017-07-22T17:29:00.268Z,59.50
2017-07-22T17:31:27.677Z,59.10
2017-07-22T17:33:54.260Z,59.10
2017-07-22T17:36:21.060Z,59.10
2017-07-22T17:38:47.957Z,59.60
2017-07-22T17:41:14.317Z,59.10
2017-07-22T17:43:41.412Z,58.70
2017-07-22T17:46:07.726Z,58.70
2017-07-22T17:48:34.895Z,58.70
2017-07-22T17:51:01.233Z,58.60
2017-07-22T17:53:27.599Z,58.60
2017-07-22T17:55:54.668Z,58.00
2017-07-22T17:58:21.036Z,58.30
2017-07-22T18:00:47.368Z,58.60
2017-07-22T18:03:13.712Z,58.30
2017-07-22T18:05:40.148Z,58.20
2017-07-22T18:08:06.477Z,57.80
2017-07-22T18:10:33.092Z,57.80
2017-07-22T18:12:59.438Z,57.80
2017-07-22T18:15:25.788Z,56.70
2017-07-22T18:17:52.372Z,55.50
2017-07-22T18:20:18.721Z,56.50
2017-07-22T18:22:45.050Z,57.30
2017-07-22T18:25:11.365Z,57.80
2017-07-22T18:27:37.849Z,58.60
2017-07-22T18:30:05.027Z,59.70
2017-07-22T18:32:32.193Z,60.30
2017-07-22T18:34:58.517Z,60.30
2017-07-22T18:37:24.891Z,60.00
2017-07-22T18:39:51.298Z,60.80
2017-07-22T18:42:17.965Z,62.00
2017-07-22T18:44:44.423Z,62.10
2017-07-22T18:47:10.804Z,62.80
2017-07-22T18:49:37.227Z,63.30
2017-07-22T18:52:03.545Z,63.60
2017-07-22T18:54:30.678Z,65.00
2017-07-22T18:56:57.012Z,64.80
2017-07-22T18:59:24.100Z,65.90
2017-07-22T19:01:50.433Z,66.70
2017-07-22T19:04:16.828Z,65.70
2017-07-22T19:06:43.909Z,66.10
2017-07-22T19:09:10.288Z,66.10
2017-07-22T19:11:36.638Z,66.60
2017-07-22T19:14:03.732Z,66.50
2017-07-22T19:16:30.235Z,66.40
2017-07-22T19:18:56.675Z,66.70
2017-07-22T19:21:23.034Z,66.90
2017-07-22T19:23:49.382Z,67.10
2017-07-22T19:26:15.757Z,66.80
2017-07-22T19:28:42.836Z,66.70
2017-07-22T19:31:09.311Z,66.50
2017-07-22T19:33:35.638Z,66.60
2017-07-22T19:36:01.985Z,67.70
2017-07-22T19:38:28.311Z,67.70
2017-07-22T19:40:54.761Z,67.70
2017-07-22T19:43:21.832Z,68.40
2017-07-22T19:45:49.994Z,68.20
2017-07-22T19:48:17.508Z,68.10
2017-07-22T19:50:44.230Z,68.10
2017-07-22T19:53:11.075Z,67.60
2017-07-22T19:55:39.724Z,67.90
2017-07-22T19:58:07.117Z,66.90
2017-07-22T20:00:34.272Z,68.10
2017-07-22T20:03:00.613Z,68.10
2017-07-22T20:05:27.013Z,67.70
2017-07-22T20:07:53.365Z,67.10
2017-07-22T20:10:21.574Z,65.70
2017-07-22T20:12:49.757Z,63.50
2017-07-22T20:15:16.144Z,63.20
2017-07-22T20:17:42.837Z,63.20
2017-07-22T20:20:09.721Z,62.50
2017-07-22T20:22:36.258Z,62.80
2017-07-22T20:25:02.632Z,62.50
2017-07-22T20:27:29.032Z,61.00
2017-07-22T20:29:55.348Z,59.80
2017-07-22T20:32:22.099Z,59.40
2017-07-22T20:34:48.890Z,59.60
2017-07-22T20:37:15.625Z,59.60
2017-07-22T20:39:44.705Z,58.10
2017-07-22T20:42:11.798Z,57.80
2017-07-22T20:44:41.243Z,58.90
2017-07-22T20:47:08.275Z,58.20
2017-07-22T20:49:35.220Z,59.90
2017-07-22T20:52:02.370Z,60.60
2017-07-22T20:54:34.152Z,59.90
2017-07-22T20:57:02.596Z,60.60
2017-07-22T20:59:29.555Z,60.60
2017-07-22T21:01:56.500Z,60.00
2017-07-22T21:04:23.297Z,59.50
2017-07-22T21:06:50.698Z,57.30
2017-07-22T21:09:17.583Z,57.20
2017-07-22T21:11:44.067Z,56.50
2017-07-22T21:14:10.464Z,55.70
2017-07-22T21:16:36.992Z,56.20
2017-07-22T21:19:04.269Z,56.20
2017-07-22T21:21:31.350Z,56.20
2017-07-22T21:23:57.870Z,55.10
2017-07-22T21:26:24.320Z,54.00
2017-07-22T21:28:50.782Z,54.00
2017-07-22T21:31:17.468Z,54.10
2017-07-22T21:33:43.844Z,53.30
2017-07-22T21:36:10.397Z,53.30
2017-07-22T21:38:37.702Z,54.00
2017-07-22T21:41:04.770Z,53.40
2017-07-22T21:43:31.183Z,53.60
2017-07-22T21:45:57.553Z,53.50
2017-07-22T21:48:24.107Z,53.20
2017-07-22T21:50:51.369Z,53.70
2017-07-22T21:53:18.300Z,53.70
2017-07-22T21:55:45.368Z,53.20
2017-07-22T21:58:12.531Z,52.90
2017-07-22T22:00:39.587Z,52.90
2017-07-22T22:03:06.104Z,53.80
2017-07-22T22:05:33.259Z,53.30
2017-07-22T22:08:03.020Z,52.90
2017-07-22T22:10:29.489Z,53.40
2017-07-22T22:12:56.623Z,53.00
2017-07-22T22:15:23.800Z,53.40
2017-07-22T22:17:50.217Z,52.70
2017-07-22T22:20:17.434Z,53.10
2017-07-22T22:22:43.866Z,53.10
2017-07-22T22:25:10.268Z,53.60
2017-07-22T22:27:36.694Z,53.20
2017-07-22T22:30:03.121Z,53.40
2017-07-22T22:32:29.524Z,54.10
2017-07-22T22:34:56.755Z,54.00
2017-07-22T22:37:23.191Z,54.00
2017-07-22T22:39:51.815Z,54.80
2017-07-22T22:42:18.360Z,54.70
2017-07-22T22:44:44.781Z,55.50
2017-07-22T22:47:11.207Z,55.90
2017-07-22T22:49:39.339Z,55.60
2017-07-22T22:52:05.755Z,55.60
2017-07-22T22:54:32.183Z,55.80
2017-07-22T22:56:58.611Z,55.50
2017-07-22T22:59:25.033Z,55.10
2017-07-22T23:01:51.444Z,54.80
2017-07-22T23:04:20.609Z,54.70
2017-07-22T23:06:47.800Z,55.00
2017-07-22T23:09:14.233Z,55.00
2017-07-22T23:11:40.619Z,54.80
2017-07-22T23:14:07.048Z,55.00
2017-07-22T23:16:33.431Z,55.10
2017-07-22T23:18:59.820Z,55.90
2017-07-22T23:21:26.282Z,55.80
2017-07-22T23:23:52.744Z,55.20
2017-07-22T23:26:19.151Z,56.00
2017-07-22T23:28:46.329Z,55.90
2017-07-22T23:31:12.733Z,55.90
2017-07-22T23:33:39.911Z,55.40
2017-07-22T23:36:07.404Z,55.40
2017-07-22T23:38:34.788Z,54.90
2017-07-22T23:41:02.100Z,54.80
2017-07-22T23:43:28.457Z,54.90
2017-07-22T23:45:54.842Z,54.60
2017-07-22T23:48:24.092Z,54.80
2017-07-22T23:50:52.473Z,54.90
2017-07-22T23:53:18.923Z,55.50
2017-07-22T23:55:46.100Z,55.10
2017-07-22T23:58:12.557Z,55.10
